Time;durP1;ratioP1;P1;durP2;ratioP2;P2;SDS_P1;SDS_P2;PMS_P1;PMS_P2;Temp;Humidity;BMP_temperature;BMP_pressure;BME280_temperature;BME280_humidity;BME280_pressure;Samples;Min_cycle;Max_cycle;Signal;HPM_P1;HPM_P2
2022/09/06 00:03:13;;;;;;;11.23;3.20;;;;;;;19.25;65.77;96282.97;10375396;28;98151;-61
2022/09/06 00:08:16;;;;;;;15.15;3.38;;;;;;;19.25;65.72;96288.25;10371795;28;97346;-60
2022/09/06 00:13:20;;;;;;;13.25;3.55;;;;;;;19.14;66.88;96296.81;10375863;28;96890;-59
2022/09/06 00:18:23;;;;;;;12.32;3.78;;;;;;;19.10;66.35;96295.56;10375361;28;96875;-60
2022/09/06 00:23:26;;;;;;;12.40;3.30;;;;;;;18.95;67.28;96297.53;10376462;28;96930;-59
2022/09/06 00:28:30;;;;;;;15.75;3.90;;;;;;;18.69;68.68;96301.72;10377434;28;96752;-60
2022/09/06 00:33:33;;;;;;;9.88;3.25;;;;;;;18.57;69.06;96297.97;10376046;28;96862;-59
2022/09/06 00:38:36;;;;;;;11.07;3.05;;;;;;;18.45;69.96;96293.25;10375018;28;97373;-59
2022/09/06 00:43:41;;;;;;;11.43;3.40;;;;;;;18.43;70.33;96297.94;10376554;28;96966;-59
2022/09/06 00:48:46;;;;;;;13.25;3.30;;;;;;;18.35;70.53;96300.72;10364738;28;97291;-60
2022/09/06 00:53:49;;;;;;;;;;;;;;;18.34;69.76;96291.16;10346898;28;97821;-59
2022/09/06 00:58:54;;;;;;;15.25;3.53;;;;;;;18.32;69.82;96287.88;10359537;28;97077;-59
2022/09/06 01:03:57;;;;;;;18.13;4.80;;;;;;;18.26;70.58;96286.03;10375616;28;97203;-59
2022/09/06 01:09:12;;;;;;;15.07;3.90;;;;;;;18.20;70.92;96292.91;10351063;28;97047;-59
2022/09/06 01:14:29;;;;;;;14.15;3.92;;;;;;;18.01;71.80;96285.66;10348156;28;96752;-59
2022/09/06 01:20:10;;;;;;;10.27;3.47;;;;;;;18.16;71.49;96294.31;10384766;28;98044;-59
2022/09/06 01:25:33;;;;;;;11.90;3.63;;;;;;;18.28;70.66;96302.53;10384317;28;97138;-59
2022/09/06 01:30:43;;;;;;;11.77;3.70;;;;;;;18.39;70.20;96294.03;10360808;28;96800;-60
2022/09/06 01:35:50;;;;;;;11.15;3.40;;;;;;;18.45;70.88;96297.75;10366756;28;96889;-60
2022/09/06 01:40:53;;;;;;;12.60;3.55;;;;;;;18.42;70.68;96296.28;10349845;28;97753;-59
2022/09/06 01:46:06;;;;;;;13.45;4.38;;;;;;;18.25;72.75;96310.84;10348472;28;97952;-59
2022/09/06 01:51:20;;;;;;;16.33;3.42;;;;;;;18.21;72.46;96305.13;10335815;28;97819;-59
2022/09/06 01:56:37;;;;;;;10.90;4.07;;;;;;;18.28;72.77;96308.63;10340148;28;96792;-60
2022/09/06 02:01:47;;;;;;;12.45;3.80;;;;;;;18.24;72.58;96303.94;10344168;28;97555;-59
2022/09/06 02:06:57;;;;;;;11.18;3.72;;;;;;;18.28;73.37;96303.34;10349434;28;98605;-59
2022/09/06 02:12:03;;;;;;;11.38;3.60;;;;;;;18.47;72.67;96291.22;10330507;28;98006;-60
2022/09/06 02:17:11;;;;;;;8.77;3.53;;;;;;;18.59;71.22;96288.03;10341808;28;98897;-63
2022/09/06 02:22:19;;;;;;;9.60;3.50;;;;;;;18.58;72.25;96296.97;10336603;28;97981;-59
2022/09/06 02:27:22;;;;;;;9.55;3.45;;;;;;;18.49;72.61;96305.06;10344069;28;98420;-59
2022/09/06 02:32:29;;;;;;;11.15;3.63;;;;;;;18.43;73.34;96297.94;10348998;28;97431;-59
2022/09/06 02:37:32;;;;;;;11.27;3.53;;;;;;;18.35;73.32;96303.38;10348213;28;99344;-59
2022/09/06 02:42:35;;;;;;;10.85;3.58;;;;;;;18.34;73.50;96300.91;10342127;28;97326;-61
2022/09/06 02:47:39;;;;;;;11.93;4.07;;;;;;;18.38;73.17;96297.69;10337505;28;97778;-59
2022/09/06 02:52:42;;;;;;;10.15;3.38;;;;;;;18.43;73.41;96290.00;10333232;28;96758;-59
2022/09/06 02:57:45;;;;;;;10.38;3.70;;;;;;;18.47;73.38;96296.53;10343351;28;98864;-59
2022/09/06 03:02:49;;;;;;;11.88;3.50;;;;;;;18.49;73.10;96298.97;10329253;28;99282;-61
2022/09/06 03:07:53;;;;;;;10.85;3.28;;;;;;;18.49;72.54;96294.50;10336308;28;96799;-59
2022/09/06 03:12:55;;;;;;;9.90;3.40;;;;;;;18.44;73.51;96288.97;10335903;28;98646;-59
2022/09/06 03:18:00;;;;;;;5.97;2.88;;;;;;;18.44;73.02;96288.16;10342350;28;98429;-59
2022/09/06 03:23:02;;;;;;;8.57;3.50;;;;;;;18.46;73.59;96286.97;10356421;28;97169;-61
2022/09/06 03:28:05;;;;;;;10.80;3.70;;;;;;;18.36;73.94;96283.88;10369179;28;97132;-60
2022/09/06 03:33:09;;;;;;;11.95;3.72;;;;;;;18.29;74.49;96280.34;10345114;28;97770;-59
2022/09/06 03:38:12;;;;;;;11.90;3.35;;;;;;;18.22;74.58;96280.31;10344368;28;99401;-59
2022/09/06 03:43:16;;;;;;;10.77;3.90;;;;;;;18.26;74.17;96288.69;10340835;28;98415;-59
2022/09/06 03:48:22;;;;;;;13.50;3.97;;;;;;;18.16;73.94;96273.16;10335294;28;96908;-63
2022/09/06 03:53:27;;;;;;;8.95;3.75;;;;;;;18.22;74.62;96290.91;10334973;28;96877;-60
2022/09/06 03:58:31;;;;;;;;;;;;;;;18.28;74.49;96286.66;10340314;28;96937;-59
2022/09/06 04:03:36;;;;;;;10.75;3.95;;;;;;;18.31;73.92;96292.38;10332924;28;97867;-60
2022/09/06 04:08:39;;;;;;;11.40;4.30;;;;;;;18.32;74.91;96287.88;10345795;28;96981;-59
2022/09/06 04:13:42;;;;;;;11.45;4.13;;;;;;;18.26;74.78;96288.69;10346953;28;99369;-60
2022/09/06 04:18:46;;;;;;;9.30;4.13;;;;;;;18.30;74.47;96289.91;10338467;28;97358;-59
2022/09/06 04:23:49;;;;;;;9.95;3.60;;;;;;;18.27;74.61;96285.00;10347245;28;97529;-59
2022/09/06 04:28:52;;;;;;;11.93;4.63;;;;;;;18.29;74.93;96282.97;10360418;28;96828;-60
2022/09/06 04:33:56;;;;;;;8.55;3.47;;;;;;;18.24;74.70;96285.44;10349052;28;97286;-60
2022/09/06 04:38:58;;;;;;;9.80;3.97;;;;;;;18.13;74.71;96286.75;10344661;28;97167;-63
2022/09/06 04:44:01;;;;;;;9.65;4.18;;;;;;;18.07;76.01;96285.72;10363207;28;96891;-59
2022/09/06 04:49:06;;;;;;;11.35;4.10;;;;;;;18.03;77.42;96288.94;10333461;28;96801;-60
2022/09/06 04:54:08;;;;;;;12.85;4.13;;;;;;;17.98;76.96;96292.16;10363316;28;97281;-62
2022/09/06 04:59:11;;;;;;;10.77;3.78;;;;;;;18.05;76.83;96281.66;10333673;28;97055;-59
2022/09/06 05:04:15;;;;;;;6.05;3.80;;;;;;;18.06;76.89;96292.00;10386437;28;96788;-59
2022/09/06 05:09:18;;;;;;;8.98;3.85;;;;;;;18.03;76.95;96278.34;10388744;28;96895;-59
2022/09/06 05:14:21;;;;;;;8.70;4.40;;;;;;;17.99;77.38;96287.69;10374617;28;96853;-59
2022/09/06 05:19:25;;;;;;;11.93;4.20;;;;;;;18.03;77.66;96289.75;10353132;28;97240;-60
2022/09/06 05:24:28;;;;;;;10.60;4.45;;;;;;;18.13;77.76;96284.13;10335084;28;99020;-59
2022/09/06 05:29:31;;;;;;;9.40;3.88;;;;;;;18.18;77.16;96279.06;10342583;28;96821;-59
2022/09/06 05:34:35;;;;;;;10.93;4.20;;;;;;;18.20;76.80;96287.63;10360730;28;97935;-60
2022/09/06 05:39:38;;;;;;;8.68;3.83;;;;;;;18.22;76.38;96285.63;10360321;28;97929;-59
2022/09/06 05:44:40;;;;;;;11.77;4.63;;;;;;;18.23;77.34;96299.66;10338989;28;98460;-61
2022/09/06 05:49:45;;;;;;;9.32;4.32;;;;;;;18.25;77.02;96297.63;10338325;28;96805;-59
2022/09/06 05:54:47;;;;;;;14.48;4.82;;;;;;;18.27;77.88;96300.88;10345717;28;96871;-59
2022/09/06 05:59:52;;;;;;;12.30;4.25;;;;;;;18.22;77.30;96300.66;10349109;28;96935;-59
2022/09/06 06:04:57;;;;;;;11.25;3.97;;;;;;;18.25;77.24;96310.84;10336788;28;98124;-59
2022/09/06 06:09:59;;;;;;;9.73;4.00;;;;;;;18.48;76.36;96310.56;10356998;28;97061;-59
2022/09/06 06:15:04;;;;;;;7.10;4.00;;;;;;;18.76;76.38;96310.50;10354279;28;97832;-60
2022/09/06 06:20:09;;;;;;;8.57;3.83;;;;;;;18.97;76.74;96312.22;10351172;28;97096;-59
2022/09/06 06:25:12;;;;;;;13.00;3.83;;;;;;;18.94;76.76;96302.03;10338262;28;96974;-59
2022/09/06 06:30:15;;;;;;;8.95;3.95;;;;;;;18.93;77.33;96310.97;10374173;28;96991;-60
2022/09/06 06:35:21;;;;;;;7.32;3.88;;;;;;;19.01;77.30;96312.66;10349098;28;96916;-59
2022/09/06 06:40:24;;;;;;;7.82;3.65;;;;;;;19.04;76.50;96312.25;10363302;28;97265;-60
2022/09/06 06:45:27;;;;;;;12.43;4.53;;;;;;;19.20;76.78;96309.22;10337654;28;97265;-59
2022/09/06 06:50:31;;;;;;;12.18;4.40;;;;;;;19.40;76.40;96319.03;10349285;28;98434;-59
2022/09/06 06:55:35;;;;;;;9.75;4.15;;;;;;;19.57;74.90;96330.88;10389467;28;97713;-60
2022/09/06 07:00:37;;;;;;;10.32;3.85;;;;;;;19.65;74.57;96331.75;10375232;28;97851;-59
2022/09/06 07:05:43;;;;;;;10.65;4.30;;;;;;;19.62;74.79;96332.94;10384586;28;97484;-59
2022/09/06 07:11:08;;;;;;;10.88;4.47;;;;;;;19.52;75.43;96336.00;10391221;28;96888;-60
2022/09/06 07:16:14;;;;;;;10.30;4.90;;;;;;;19.52;75.49;96333.38;10395188;28;97285;-60
2022/09/06 07:21:20;;;;;;;11.93;4.88;;;;;;;19.56;75.11;96334.56;10401439;28;97091;-60
2022/09/06 07:26:39;;;;;;;11.38;4.07;;;;;;;19.63;74.58;96327.44;10401157;28;96831;-59
2022/09/06 07:31:42;;;;;;;9.80;4.28;;;;;;;19.55;74.93;96279.13;10394966;27;97144;-59
2022/09/06 07:37:06;;;;;;;11.35;4.80;;;;;;;19.83;74.50;96347.88;10395203;28;98060;-60
2022/09/06 07:42:09;;;;;;;10.93;5.22;;;;;;;19.81;75.47;96387.00;10393880;28;97589;-59
2022/09/06 07:47:14;;;;;;;8.63;4.00;;;;;;;19.78;75.35;96374.13;10387894;28;96862;-59
2022/09/06 07:52:38;;;;;;;;;;;;;;;19.83;75.15;96374.38;10396957;28;96808;-61
2022/09/06 07:58:01;;;;;;;13.00;5.03;;;;;;;19.87;76.25;96370.31;10379077;28;96956;-59
2022/09/06 08:03:04;;;;;;;11.68;5.15;;;;;;;19.88;76.70;96366.63;10395525;28;96667;-62
2022/09/06 08:08:08;;;;;;;13.15;5.40;;;;;;;19.74;78.08;96347.22;10390387;28;96760;-60
2022/09/06 08:13:30;;;;;;;12.30;5.77;;;;;;;19.68;78.52;96345.41;10380599;28;97117;-60
2022/09/06 08:18:34;;;;;;;10.95;5.93;;;;;;;19.62;78.48;96354.94;10391290;28;96754;-60
2022/09/06 08:23:38;;;;;;;14.90;6.13;;;;;;;19.70;79.80;96358.44;10399377;28;96800;-60
2022/09/06 08:28:41;;;;;;;12.95;5.80;;;;;;;19.87;79.50;96365.03;10396645;27;96871;-61
2022/09/06 08:33:46;;;;;;;11.57;5.43;;;;;;;20.00;79.27;96372.97;10392586;28;96638;-61
2022/09/06 08:38:50;;;;;;;13.98;6.13;;;;;;;20.34;79.36;96380.94;10380720;28;97068;-61
2022/09/06 08:43:56;;;;;;;15.40;5.85;;;;;;;20.65;78.74;96379.44;10389313;28;97077;-61
2022/09/06 08:49:19;;;;;;;19.63;6.25;;;;;;;20.66;77.97;96384.53;10389609;28;96850;-60
2022/09/06 08:54:31;;;;;;;13.20;5.80;;;;;;;20.53;78.31;96374.78;10401288;27;96684;-60
2022/09/06 08:59:38;;;;;;;12.73;5.15;;;;;;;20.57;78.01;96369.84;10392767;28;97345;-60
2022/09/06 09:04:44;;;;;;;12.18;5.15;;;;;;;20.89;77.86;96349.59;10387233;28;97069;-60
2022/09/06 09:09:50;;;;;;;10.57;5.85;;;;;;;21.20;77.47;96347.19;10397611;28;97075;-60
2022/09/06 09:14:59;;;;;;;7.95;4.70;;;;;;;21.43;76.73;96344.00;10381111;28;98129;-60
2022/09/06 09:20:02;;;;;;;9.68;4.25;;;;;;;21.65;75.70;96349.81;10375060;28;96700;-59
2022/09/06 09:25:08;;;;;;;9.27;4.13;;;;;;;21.90;74.04;96341.06;10396760;28;96659;-61
2022/09/06 09:30:14;;;;;;;11.45;4.60;;;;;;;21.67;74.66;96343.25;10390461;28;97149;-60
2022/09/06 09:35:41;;;;;;;11.60;5.40;;;;;;;21.33;75.12;96336.50;10390101;28;96991;-60
2022/09/06 09:40:52;;;;;;;11.82;4.95;;;;;;;21.25;75.30;96339.41;10389364;28;96722;-61
2022/09/06 09:46:16;;;;;;;10.40;4.88;;;;;;;21.25;74.69;96329.59;10369445;28;97191;-60
2022/09/06 09:51:22;;;;;;;14.13;4.50;;;;;;;21.32;73.17;96324.25;10394711;28;97286;-60
2022/09/06 09:56:35;;;;;;;11.45;4.82;;;;;;;21.54;74.09;96315.94;10378518;28;96992;-61
2022/09/06 10:01:38;;;;;;;10.05;4.22;;;;;;;21.72;73.47;96312.56;10371988;28;98265;-60
2022/09/06 10:06:42;;;;;;;10.73;4.63;;;;;;;22.01;72.67;96306.59;10390031;28;96920;-61
2022/09/06 10:12:06;;;;;;;10.05;4.53;;;;;;;21.93;73.06;96303.41;10375084;27;96757;-61
2022/09/06 10:17:19;;;;;;;10.40;4.15;;;;;;;22.17;71.32;96288.44;10392329;28;96846;-60
2022/09/06 10:22:27;;;;;;;10.07;4.20;;;;;;;22.06;70.90;96282.00;10397016;27;96730;-60
2022/09/06 10:27:32;;;;;;;9.90;3.33;;;;;;;22.29;69.65;96277.88;10377811;28;96798;-59
2022/09/06 10:32:41;;;;;;;11.57;3.35;;;;;;;22.25;69.57;96274.84;10404984;28;98064;-60
2022/09/06 10:37:50;;;;;;;7.38;2.90;;;;;;;22.62;69.02;96259.72;10390484;28;96724;-60
2022/09/06 10:42:57;;;;;;;14.90;3.53;;;;;;;23.12;66.82;96265.84;10394330;28;96809;-60
2022/09/06 10:48:07;;;;;;;11.15;3.30;;;;;;;23.58;65.01;96263.56;10404385;28;96755;-60
2022/09/06 10:53:37;;;;;;;8.65;3.10;;;;;;;24.10;63.04;96248.53;10396046;28;97356;-60
2022/09/06 10:58:51;;;;;;;9.70;3.22;;;;;;;24.20;64.07;96247.16;10403761;28;96682;-60
2022/09/06 11:04:23;;;;;;;7.75;2.80;;;;;;;23.98;61.87;96245.03;10382827;28;96859;-60
2022/09/06 11:09:31;;;;;;;8.95;3.03;;;;;;;24.04;60.88;96244.09;10406692;28;96747;-60
2022/09/06 11:14:37;;;;;;;7.47;2.80;;;;;;;24.17;60.66;96228.94;10395050;28;97979;-60
2022/09/06 11:19:45;;;;;;;9.55;2.83;;;;;;;24.48;59.62;96233.84;10394657;28;97427;-60
2022/09/06 11:25:21;;;;;;;6.65;3.00;;;;;;;24.56;60.26;96224.69;10394306;28;96840;-61
2022/09/06 11:30:27;;;;;;;9.55;2.95;;;;;;;24.88;59.22;96222.38;10394519;28;96630;-62
2022/09/06 11:35:32;;;;;;;10.43;3.10;;;;;;;25.22;59.57;96211.75;10385133;28;96891;-60
2022/09/06 11:40:40;;;;;;;8.48;3.10;;;;;;;24.98;57.21;96204.91;10389541;28;97030;-61
2022/09/06 11:45:48;;;;;;;6.68;2.80;;;;;;;24.42;57.26;96196.63;10400263;28;96824;-60
2022/09/06 11:51:05;;;;;;;9.38;3.25;;;;;;;24.35;57.67;96188.75;10390248;28;96841;-61
2022/09/06 11:56:23;;;;;;;7.32;3.03;;;;;;;24.60;58.56;96200.97;10385617;28;96936;-60
2022/09/06 12:01:36;;;;;;;9.85;2.92;;;;;;;25.15;57.06;96181.69;10401947;28;96759;-62
2022/09/06 12:06:42;;;;;;;7.70;2.38;;;;;;;25.33;57.32;96180.66;10397874;28;96710;-61
2022/09/06 12:11:47;;;;;;;8.30;1.90;;;;;;;25.93;54.69;96164.97;10383620;28;96821;-62
2022/09/06 12:17:22;;;;;;;7.95;2.75;;;;;;;26.34;52.27;96158.28;10408561;28;96711;-61
2022/09/06 12:23:01;;;;;;;6.57;2.47;;;;;;;26.62;51.01;96161.81;10388735;27;96893;-61
2022/09/06 12:28:06;;;;;;;7.35;2.40;;;;;;;26.32;49.73;96163.09;10376528;28;96877;-60
2022/09/06 12:33:16;;;;;;;8.18;2.40;;;;;;;26.09;49.57;96158.75;10395206;28;96764;-60
2022/09/06 12:38:24;;;;;;;8.18;2.83;;;;;;;26.12;50.84;96150.25;10395505;28;96846;-60
2022/09/06 12:43:34;;;;;;;8.63;2.47;;;;;;;26.34;50.71;96147.56;10374154;28;96695;-61
2022/09/06 12:48:40;;;;;;;10.65;2.60;;;;;;;26.37;50.21;96152.44;10376256;27;96746;-61
2022/09/06 12:53:50;;;;;;;9.55;2.72;;;;;;;26.48;49.63;96144.53;10398653;28;96737;-60
2022/09/06 12:59:12;;;;;;;8.32;2.58;;;;;;;26.53;49.38;96136.53;10389832;27;96781;-60
2022/09/06 13:04:24;;;;;;;7.63;2.42;;;;;;;26.49;48.65;96136.25;10399767;28;98043;-60
2022/09/06 13:09:28;;;;;;;6.28;2.42;;;;;;;26.81;49.91;96134.69;10392683;28;98279;-61
2022/09/06 13:14:34;;;;;;;8.75;3.10;;;;;;;27.32;47.66;96124.44;10392491;28;96729;-61
2022/09/06 13:19:39;;;;;;;8.93;2.53;;;;;;;27.22;48.43;96127.03;10380986;28;96816;-60
2022/09/06 13:24:45;;;;;;;7.18;2.45;;;;;;;27.38;48.27;96112.66;10391385;28;97438;-60
2022/09/06 13:29:56;;;;;;;9.65;2.80;;;;;;;27.22;48.14;96118.97;10373687;28;97162;-62
2022/09/06 13:35:00;;;;;;;6.00;2.95;;;;;;;27.06;49.01;96116.19;10396971;28;96863;-61
2022/09/06 13:40:44;;;;;;;6.97;2.58;;;;;;;26.95;49.11;96101.06;10385070;28;96729;-60
2022/09/06 13:46:10;;;;;;;7.77;2.77;;;;;;;27.63;47.54;96087.06;10376742;28;96870;-61
2022/09/06 13:51:13;;;;;;;10.02;2.50;;;;;;;27.89;47.25;96079.97;10365458;28;97116;-60
2022/09/06 13:56:16;;;;;;;6.63;2.23;;;;;;;28.01;46.78;96072.50;10398296;28;97213;-60
2022/09/06 14:01:20;;;;;;;7.30;2.20;;;;;;;28.26;45.85;96070.19;10393696;28;97196;-60
2022/09/06 14:06:23;;;;;;;8.05;2.30;;;;;;;28.21;45.86;96069.06;10387886;28;96998;-60
2022/09/06 14:11:26;;;;;;;6.77;2.40;;;;;;;28.24;44.49;96065.06;10391850;28;96837;-61
2022/09/06 14:16:30;;;;;;;6.87;1.87;;;;;;;27.91;44.56;96056.38;10398055;28;97153;-60
2022/09/06 14:21:33;;;;;;;10.10;2.30;;;;;;;28.10;43.57;96074.66;10390073;27;96822;-61
2022/09/06 14:26:37;;;;;;;8.40;2.33;;;;;;;28.23;44.54;96063.44;10378435;28;96870;-61
2022/09/06 14:31:41;;;;;;;8.02;1.70;;;;;;;28.22;43.29;96059.13;10389313;28;97439;-60
2022/09/06 14:36:44;;;;;;;7.28;1.95;;;;;;;28.20;43.04;96080.06;10381157;28;96841;-62
2022/09/06 14:41:47;;;;;;;7.33;2.10;;;;;;;27.93;43.06;96067.63;10392410;28;97101;-60
2022/09/06 14:46:52;;;;;;;6.80;1.73;;;;;;;27.73;43.91;96065.66;10382937;28;96905;-60
2022/09/06 14:51:55;;;;;;;6.70;1.85;;;;;;;27.56;44.72;96070.38;10390967;28;96662;-61
2022/09/06 14:56:58;;;;;;;5.17;1.57;;;;;;;27.48;45.51;96075.16;10390653;28;96785;-61
2022/09/06 15:02:02;;;;;;;9.40;2.17;;;;;;;26.93;46.44;96079.03;10389351;28;96764;-60
2022/09/06 15:07:07;;;;;;;7.65;2.17;;;;;;;26.49;47.30;96081.88;10389870;28;98771;-62
2022/09/06 15:12:10;;;;;;;6.70;2.22;;;;;;;26.61;47.71;96066.44;10400743;27;96992;-60
2022/09/06 15:17:14;;;;;;;7.00;2.03;;;;;;;26.45;48.49;96067.34;10395067;28;98392;-60
2022/09/06 15:22:17;;;;;;;7.93;2.00;;;;;;;26.31;48.55;96081.16;10395137;28;97239;-60
2022/09/06 15:27:20;;;;;;;10.60;2.20;;;;;;;26.27;48.89;96068.50;10399105;28;96744;-60
2022/09/06 15:32:24;;;;;;;5.23;2.10;;;;;;;26.19;49.26;96072.41;10383567;27;96728;-60
2022/09/06 15:37:27;;;;;;;5.13;2.00;;;;;;;26.02;50.06;96069.00;10387145;28;97111;-60
2022/09/06 15:42:30;;;;;;;5.07;2.42;;;;;;;25.48;51.10;96058.91;10402838;28;96909;-60
2022/09/06 15:47:34;;;;;;;7.43;2.40;;;;;;;25.38;51.64;96049.72;10375075;28;99622;-60
2022/09/06 15:52:37;;;;;;;4.57;1.90;;;;;;;25.22;52.19;96050.56;10389002;28;97623;-60
2022/09/06 15:57:40;;;;;;;8.18;2.15;;;;;;;25.36;51.58;96051.81;10378076;28;98186;-60
2022/09/06 16:02:44;;;;;;;6.82;1.98;;;;;;;25.42;50.82;96055.38;10383904;28;98045;-61
2022/09/06 16:07:48;;;;;;;8.02;2.00;;;;;;;25.29;51.07;96055.75;10392734;28;96759;-60
2022/09/06 16:12:53;;;;;;;8.82;1.85;;;;;;;24.97;51.32;96051.75;10397624;28;97125;-60
2022/09/06 16:18:02;;;;;;;4.75;1.80;;;;;;;24.71;51.95;96045.19;10387417;28;98233;-60
2022/09/06 16:23:06;;;;;;;5.70;1.98;;;;;;;24.69;51.74;96042.75;10396567;28;96796;-60
2022/09/06 16:28:09;;;;;;;5.20;1.90;;;;;;;24.60;52.27;96035.38;10377077;28;96992;-60
2022/09/06 16:33:14;;;;;;;7.33;1.80;;;;;;;24.42;52.53;96031.91;10373466;28;96867;-61
2022/09/06 16:38:17;;;;;;;6.05;1.65;;;;;;;24.17;53.52;96015.41;10380437;28;96866;-59
2022/09/06 16:43:20;;;;;;;6.20;1.67;;;;;;;24.05;53.76;96010.94;10379528;28;98334;-61
2022/09/06 16:48:25;;;;;;;7.20;1.90;;;;;;;23.98;53.93;96020.91;10354019;28;96865;-59
2022/09/06 16:53:28;;;;;;;8.25;1.90;;;;;;;24.06;54.40;96023.22;10363193;28;97112;-63
2022/09/06 16:58:32;;;;;;;8.17;1.77;;;;;;;24.09;54.33;96033.44;10358590;28;97938;-61
2022/09/06 17:03:37;;;;;;;6.63;2.00;;;;;;;24.03;55.06;96037.00;10360019;28;98654;-62
2022/09/06 17:08:40;;;;;;;7.95;2.33;;;;;;;23.81;55.75;96030.72;10356192;28;97683;-61
2022/09/06 17:13:45;;;;;;;6.80;2.07;;;;;;;23.69;56.07;96033.41;10365762;28;97592;-61
2022/09/06 17:18:51;;;;;;;5.93;2.38;;;;;;;23.63;57.05;96045.81;10363512;28;97286;-61
2022/09/06 17:23:57;;;;;;;6.20;1.88;;;;;;;23.62;57.23;96001.56;10389764;27;96779;-62
2022/09/06 17:29:00;;;;;;;7.15;2.78;;;;;;;23.51;58.04;96045.84;10394330;28;98144;-62
2022/09/06 17:34:07;;;;;;;4.28;2.00;;;;;;;23.43;58.57;96056.06;10369860;28;97186;-61
2022/09/06 17:39:13;;;;;;;4.05;2.30;;;;;;;23.30;59.01;96047.25;10391324;28;97179;-61
2022/09/06 17:44:17;;;;;;;7.53;2.20;;;;;;;23.07;59.65;96028.59;10388031;28;98855;-60
2022/09/06 17:49:22;;;;;;;6.60;2.30;;;;;;;22.84;59.81;96043.53;10353703;28;97332;-61
2022/09/06 17:54:25;;;;;;;5.57;2.15;;;;;;;22.62;60.36;96009.44;10354034;28;96942;-60
2022/09/06 17:59:30;;;;;;;9.67;2.50;;;;;;;22.44;61.35;95999.66;10342771;28;97791;-63
2022/09/06 18:04:39;;;;;;;5.95;1.95;;;;;;;22.42;61.50;95993.78;10357223;28;97402;-60
2022/09/06 18:09:44;;;;;;;9.20;2.28;;;;;;;22.41;61.09;96008.09;10345115;28;99078;-61
2022/09/06 18:14:47;;;;;;;;;;;;;;;22.29;60.64;96009.13;10404543;28;97006;-60
2022/09/06 18:19:52;;;;;;;11.60;7.22;;;;;;;22.28;61.62;96013.63;10360209;28;97418;-59
2022/09/06 18:24:55;;;;;;;8.95;4.75;;;;;;;22.25;61.17;96014.91;10351423;28;98774;-59
2022/09/06 18:30:00;;;;;;;8.65;2.45;;;;;;;22.19;61.03;96009.66;10394149;28;96763;-59
2022/09/06 18:35:07;;;;;;;6.07;2.00;;;;;;;22.04;61.70;96013.56;10376469;28;97323;-59
2022/09/06 18:40:11;;;;;;;4.22;2.17;;;;;;;21.88;62.08;96019.47;10392604;28;96664;-59
2022/09/06 18:45:14;;;;;;;4.35;2.35;;;;;;;21.68;63.19;96046.34;10402859;27;96763;-59
2022/09/06 18:50:21;;;;;;;7.00;2.20;;;;;;;21.49;64.22;96054.28;10395647;28;97182;-59
2022/09/06 18:55:25;;;;;;;8.35;2.67;;;;;;;21.36;64.85;96062.38;10372177;28;97169;-60
2022/09/06 19:00:28;;;;;;;8.88;3.67;;;;;;;21.21;65.24;96075.22;10365574;28;98245;-58
2022/09/06 19:05:35;;;;;;;7.45;3.42;;;;;;;20.99;65.63;96064.97;10345282;28;99202;-58
2022/09/06 19:10:40;;;;;;;11.73;6.07;;;;;;;21.03;65.64;96098.06;10354043;28;98872;-60
2022/09/06 19:15:44;;;;;;;6.03;1.92;;;;;;;21.00;65.49;96101.13;10354600;28;98532;-59
2022/09/06 19:20:58;;;;;;;5.07;1.73;;;;;;;20.88;65.73;96106.31;10348823;28;97560;-59
2022/09/06 19:26:04;;;;;;;6.70;2.30;;;;;;;20.69;66.42;96109.91;10352336;28;98816;-58
2022/09/06 19:31:09;;;;;;;8.57;2.67;;;;;;;20.54;67.11;96115.50;10380932;28;96756;-60
2022/09/06 19:36:15;;;;;;;7.53;2.35;;;;;;;20.42;67.75;96114.56;10394834;28;97139;-58
2022/09/06 19:41:19;;;;;;;5.57;2.15;;;;;;;20.30;67.89;96131.13;10399829;28;97130;-59
2022/09/06 19:46:23;;;;;;;5.43;1.95;;;;;;;20.22;67.82;96134.03;10372484;27;98594;-59
2022/09/06 19:51:27;;;;;;;7.45;2.67;;;;;;;20.22;67.72;96139.34;10383820;28;97315;-61
2022/09/06 19:56:32;;;;;;;7.80;2.08;;;;;;;20.22;67.44;96143.81;10367348;28;97115;-59
2022/09/06 20:01:36;;;;;;;7.70;2.17;;;;;;;20.23;67.96;96133.00;10363391;28;97498;-59
2022/09/06 20:06:41;;;;;;;;;;;;;;;20.10;67.72;96135.72;10379912;28;97562;-59
2022/09/06 20:11:45;;;;;;;8.73;2.30;;;;;;;19.96;68.04;96135.78;10385539;28;96978;-59
2022/09/06 20:16:47;;;;;;;8.33;2.80;;;;;;;19.87;68.55;96136.19;10372187;28;96826;-60
2022/09/06 20:21:53;;;;;;;7.68;2.65;;;;;;;19.76;69.66;96119.88;10368084;28;99567;-58
2022/09/06 20:26:56;;;;;;;11.93;4.95;;;;;;;19.67;69.00;96120.34;10387375;28;98176;-59
2022/09/06 20:31:59;;;;;;;5.07;2.03;;;;;;;19.65;68.83;96125.03;10372897;28;97622;-59
2022/09/06 20:37:03;;;;;;;5.97;3.00;;;;;;;19.65;69.49;96114.44;10389615;28;96888;-58
2022/09/06 20:42:06;;;;;;;5.82;2.22;;;;;;;19.65;69.90;96117.91;10356039;28;98660;-59
2022/09/06 20:47:09;;;;;;;7.80;2.53;;;;;;;19.58;69.31;96125.06;10393630;28;96748;-59
2022/09/06 20:52:13;;;;;;;7.78;2.45;;;;;;;19.57;69.67;96126.88;10373085;28;98754;-58
2022/09/06 20:57:16;;;;;;;5.72;1.90;;;;;;;19.49;70.05;96127.09;10357748;28;99004;-58
2022/09/06 21:02:19;;;;;;;6.43;2.42;;;;;;;19.35;69.95;96123.66;10370598;28;97684;-59
2022/09/06 21:07:23;;;;;;;7.93;2.72;;;;;;;19.28;70.59;96122.03;10374022;28;97160;-58
2022/09/06 21:12:26;;;;;;;7.55;2.13;;;;;;;19.16;69.87;96114.72;10355657;28;96860;-59
2022/09/06 21:17:29;;;;;;;5.88;1.88;;;;;;;19.19;70.00;96134.66;10349009;28;99239;-59
2022/09/06 21:22:33;;;;;;;4.95;2.00;;;;;;;19.06;70.84;96132.84;10384749;28;98981;-58
2022/09/06 21:27:36;;;;;;;5.03;2.30;;;;;;;19.01;70.09;96136.09;10397943;28;97899;-58
2022/09/06 21:32:39;;;;;;;8.73;2.20;;;;;;;18.93;70.86;96120.38;10397292;28;96746;-58
2022/09/06 21:37:43;;;;;;;6.85;2.55;;;;;;;18.75;71.42;96102.44;10397833;28;96691;-58
2022/09/06 21:42:46;;;;;;;5.93;2.42;;;;;;;18.56;71.66;96100.59;10396036;28;96918;-60
2022/09/06 21:47:49;;;;;;;5.15;2.40;;;;;;;18.45;73.11;96099.38;10371067;28;96731;-59
2022/09/06 21:52:53;;;;;;;7.25;2.92;;;;;;;18.32;73.51;96100.13;10397577;28;97240;-58
2022/09/06 21:57:56;;;;;;;6.55;2.67;;;;;;;18.28;73.82;96107.66;10365235;28;97202;-58
2022/09/06 22:02:59;;;;;;;6.95;2.80;;;;;;;18.27;73.48;96115.78;10355165;28;98292;-58
2022/09/06 22:08:03;;;;;;;8.43;3.50;;;;;;;18.25;73.71;96109.88;10365402;28;97992;-58
2022/09/06 22:13:06;;;;;;;6.38;2.50;;;;;;;17.83;75.09;96117.81;10360758;28;97164;-60
2022/09/06 22:18:09;;;;;;;6.45;2.78;;;;;;;17.70;75.44;96105.38;10359441;28;98716;-59
2022/09/06 22:23:13;;;;;;;6.15;2.70;;;;;;;17.68;75.01;96115.31;10378418;28;99313;-59
2022/09/06 22:28:16;;;;;;;6.80;2.13;;;;;;;17.75;75.18;96118.81;10366022;28;98660;-60
2022/09/06 22:33:19;;;;;;;6.80;2.58;;;;;;;17.74;75.37;96122.47;10369842;28;99354;-59
2022/09/06 22:38:23;;;;;;;8.57;2.75;;;;;;;17.72;75.52;96129.75;10367994;28;97701;-58
2022/09/06 22:43:26;;;;;;;7.40;3.38;;;;;;;17.70;75.75;96108.03;10376352;28;96813;-58
2022/09/06 22:48:29;;;;;;;5.45;2.15;;;;;;;17.83;75.45;96109.91;10367482;28;96893;-59
2022/09/06 22:53:34;;;;;;;9.68;2.63;;;;;;;17.79;75.11;96099.91;10356329;28;96835;-59
2022/09/06 22:58:37;;;;;;;6.28;2.70;;;;;;;17.82;75.47;96102.16;10370792;28;97055;-59
2022/09/06 23:03:40;;;;;;;8.27;2.60;;;;;;;17.66;75.99;96104.13;10377051;28;96839;-58
2022/09/06 23:08:45;;;;;;;7.35;2.95;;;;;;;17.51;76.28;96100.81;10386427;28;96619;-59
2022/09/06 23:13:47;;;;;;;5.63;2.65;;;;;;;17.38;76.76;96112.91;10364175;28;96856;-59
2022/09/06 23:18:50;;;;;;;7.80;2.78;;;;;;;17.42;76.68;96110.69;10345242;28;98622;-58
2022/09/06 23:23:56;;;;;;;9.57;2.17;;;;;;;17.59;76.41;96107.75;10345224;28;96714;-58
2022/09/06 23:28:58;;;;;;;9.02;2.88;;;;;;;17.72;75.69;96116.56;10343786;28;96817;-58
2022/09/06 23:34:02;;;;;;;7.35;2.47;;;;;;;17.78;75.27;96116.78;10347268;28;97246;-60
2022/09/06 23:39:07;;;;;;;9.70;2.47;;;;;;;17.88;75.18;96126.00;10361323;28;97630;-59
2022/09/06 23:44:10;;;;;;;6.90;2.33;;;;;;;17.92;74.56;96129.06;10364192;28;97409;-58